createdAt,value
2022-11-09T00:04:35.601Z,0
2022-11-09T00:09:35.640Z,0
2022-11-09T00:14:35.601Z,0
2022-11-09T00:19:35.618Z,0
2022-11-09T00:24:35.590Z,0
2022-11-09T00:29:35.574Z,0
2022-11-09T00:34:35.609Z,0
2022-11-09T00:39:35.581Z,0
2022-11-09T00:44:35.594Z,0
2022-11-09T00:49:35.601Z,0
2022-11-09T00:54:35.630Z,0
2022-11-09T00:59:35.563Z,0
2022-11-09T01:04:35.582Z,0
2022-11-09T01:09:35.590Z,0
2022-11-09T01:14:35.581Z,0
2022-11-09T01:19:35.598Z,0
2022-11-09T01:24:35.588Z,0
2022-11-09T01:29:35.626Z,0
2022-11-09T01:34:35.611Z,0
2022-11-09T01:39:35.598Z,0
2022-11-09T01:44:35.597Z,0
2022-11-09T01:49:35.565Z,0
2022-11-09T01:54:35.609Z,0
2022-11-09T01:59:35.553Z,0
2022-11-09T02:04:35.582Z,0
2022-11-09T02:09:35.559Z,0
2022-11-09T02:14:35.587Z,0
2022-11-09T02:19:35.572Z,0
2022-11-09T02:24:35.556Z,0
2022-11-09T02:29:35.548Z,0
2022-11-09T02:39:35.614Z,0
2022-11-09T02:44:35.543Z,0
2022-11-09T02:49:35.529Z,0
2022-11-09T02:54:35.572Z,0
2022-11-09T02:59:35.583Z,0
2022-11-09T03:04:35.560Z,0
2022-11-09T03:09:35.561Z,0
2022-11-09T03:14:35.545Z,0
2022-11-09T03:19:35.593Z,0
2022-11-09T03:24:35.544Z,0
2022-11-09T03:29:35.568Z,0
2022-11-09T03:34:35.530Z,0
2022-11-09T03:39:35.590Z,0
2022-11-09T03:44:35.531Z,0
2022-11-09T03:49:35.532Z,0
2022-11-09T03:54:35.543Z,0
2022-11-09T03:59:35.612Z,0
2022-11-09T04:04:35.567Z,0
2022-11-09T04:09:35.522Z,0
2022-11-09T04:14:35.539Z,0
2022-11-09T04:19:35.560Z,0
2022-11-09T04:24:35.541Z,0
2022-11-09T04:29:35.548Z,0
2022-11-09T04:34:35.545Z,0
2022-11-09T04:39:35.573Z,0
2022-11-09T04:44:35.508Z,0
2022-11-09T04:49:35.500Z,0
2022-11-09T04:54:35.487Z,0
2022-11-09T04:59:35.582Z,0
2022-11-09T05:04:35.534Z,0
2022-11-09T05:09:35.542Z,0
2022-11-09T05:14:35.521Z,0
2022-11-09T05:19:35.529Z,0
2022-11-09T05:24:35.524Z,0
2022-11-09T05:29:35.518Z,0
2022-11-09T05:34:35.544Z,0
2022-11-09T05:39:35.669Z,0
2022-11-09T05:44:35.526Z,0
2022-11-09T05:49:35.464Z,0
2022-11-09T05:54:35.506Z,0
2022-11-09T05:59:35.554Z,0
2022-11-09T06:04:35.536Z,0
2022-11-09T06:09:35.503Z,0
2022-11-09T06:14:35.526Z,0
2022-11-09T06:19:35.589Z,0
2022-11-09T06:24:35.517Z,0
2022-11-09T06:29:35.496Z,0
2022-11-09T06:34:35.480Z,0
2022-11-09T06:39:35.597Z,0
2022-11-09T06:44:35.510Z,1
2022-11-09T06:49:35.526Z,2
2022-11-09T06:54:35.494Z,4
2022-11-09T06:59:35.517Z,5
2022-11-09T07:04:35.526Z,2
2022-11-09T07:09:35.496Z,4
2022-11-09T07:14:35.512Z,4
2022-11-09T07:19:35.538Z,5
2022-11-09T07:24:35.482Z,16
2022-11-09T07:29:35.499Z,18
2022-11-09T07:34:35.520Z,20
2022-11-09T07:39:35.524Z,17
2022-11-09T07:44:35.490Z,19
2022-11-09T07:49:35.480Z,23
2022-11-09T07:54:35.484Z,32
2022-11-09T07:59:35.520Z,42
2022-11-09T08:04:35.501Z,53
2022-11-09T08:09:35.473Z,95
2022-11-09T08:14:35.500Z,55
2022-11-09T08:19:35.507Z,50
2022-11-09T08:24:35.514Z,61
2022-11-09T08:29:35.485Z,63
2022-11-09T08:34:35.477Z,89
2022-11-09T08:39:35.503Z,62
2022-11-09T08:44:35.497Z,75
2022-11-09T08:49:35.492Z,343
2022-11-09T08:54:35.500Z,320
2022-11-09T08:59:35.505Z,277
2022-11-09T09:04:35.470Z,113
2022-11-09T09:09:35.466Z,74
2022-11-09T09:14:35.477Z,59
2022-11-09T09:19:35.489Z,56
2022-11-09T09:24:35.467Z,104
2022-11-09T09:29:35.478Z,367
2022-11-09T09:34:35.490Z,146
2022-11-09T09:39:35.512Z,101
2022-11-09T09:44:35.489Z,111
2022-11-09T09:49:35.473Z,150
2022-11-09T09:54:35.481Z,146
2022-11-09T09:59:35.483Z,144
2022-11-09T10:04:35.536Z,308
2022-11-09T10:09:35.429Z,257
2022-11-09T10:14:35.478Z,243
2022-11-09T10:19:35.506Z,278
2022-11-09T10:24:35.650Z,330
2022-11-09T10:29:35.499Z,395
2022-11-09T10:34:35.475Z,378
2022-11-09T10:39:35.494Z,441
2022-11-09T10:44:35.483Z,434
2022-11-09T10:49:35.481Z,179
2022-11-09T10:54:35.502Z,165
2022-11-09T10:59:35.477Z,403
2022-11-09T11:04:35.476Z,451
2022-11-09T11:09:35.466Z,543
2022-11-09T11:14:35.470Z,526
2022-11-09T11:19:35.524Z,446
2022-11-09T11:24:35.488Z,209
2022-11-09T11:29:35.456Z,393
2022-11-09T11:34:58.311Z,457
2022-11-09T11:39:35.485Z,364
2022-11-09T11:44:35.458Z,221
2022-11-09T11:49:35.472Z,323
2022-11-09T11:54:35.488Z,221
2022-11-09T11:59:35.533Z,402
2022-11-09T12:04:35.483Z,254
2022-11-09T12:09:35.464Z,290
2022-11-09T12:14:35.430Z,308
2022-11-09T12:19:35.903Z,261
2022-11-09T12:24:35.442Z,110
2022-11-09T12:29:35.472Z,392
2022-11-09T12:34:35.457Z,492
2022-11-09T12:39:35.509Z,168
2022-11-09T12:44:35.444Z,335
2022-11-09T12:49:35.438Z,448
2022-11-09T12:54:35.496Z,379
2022-11-09T12:59:35.501Z,334
2022-11-09T13:04:35.433Z,432
2022-11-09T13:09:44.255Z,394
2022-11-09T13:14:35.435Z,327
2022-11-09T13:19:35.460Z,245
2022-11-09T13:24:35.453Z,189
2022-11-09T13:29:35.440Z,327
2022-11-09T13:34:35.453Z,171
2022-11-09T13:39:35.532Z,339
2022-11-09T13:44:37.490Z,296
2022-11-09T13:49:35.498Z,253
2022-11-09T13:54:35.499Z,209
2022-11-09T13:59:35.471Z,136
2022-11-09T14:04:35.447Z,94
2022-11-09T14:09:35.471Z,63
2022-11-09T14:14:35.458Z,55
2022-11-09T14:19:35.545Z,33
2022-11-09T14:24:35.469Z,21
2022-11-09T14:29:35.457Z,24
2022-11-09T14:34:35.460Z,29
2022-11-09T14:39:35.475Z,33
2022-11-09T14:44:35.445Z,51
2022-11-09T14:49:35.445Z,33
2022-11-09T14:54:35.424Z,20
2022-11-09T14:59:35.548Z,15
2022-11-09T15:04:35.476Z,13
2022-11-09T15:09:35.431Z,13
2022-11-09T15:14:35.449Z,13
2022-11-09T15:19:35.549Z,13
2022-11-09T15:24:35.413Z,12
2022-11-09T15:29:35.409Z,10
2022-11-09T15:34:35.443Z,3
2022-11-09T15:39:35.597Z,0
2022-11-09T15:44:35.479Z,0
2022-11-09T15:49:35.428Z,0
2022-11-09T15:54:35.404Z,0
2022-11-09T15:59:35.402Z,0
2022-11-09T16:04:35.435Z,0
2022-11-09T16:09:35.455Z,0
2022-11-09T16:14:35.416Z,0
2022-11-09T16:19:35.428Z,0
2022-11-09T16:24:35.418Z,0
2022-11-09T16:29:35.443Z,0
2022-11-09T16:34:35.408Z,0
2022-11-09T16:39:35.456Z,0
2022-11-09T16:44:35.428Z,0
2022-11-09T16:49:35.440Z,0
2022-11-09T16:54:35.442Z,0
2022-11-09T16:59:35.432Z,0
2022-11-09T17:04:35.440Z,0
2022-11-09T17:09:35.428Z,0
2022-11-09T17:14:35.384Z,0
2022-11-09T17:19:35.420Z,0
2022-11-09T17:24:35.416Z,0
2022-11-09T17:29:35.393Z,0
2022-11-09T17:34:35.407Z,0
2022-11-09T17:39:35.451Z,0
2022-11-09T17:44:35.414Z,0
2022-11-09T17:49:35.423Z,0
2022-11-09T17:54:37.115Z,0
2022-11-09T17:59:35.430Z,0
2022-11-09T18:04:35.416Z,0
2022-11-09T18:09:41.126Z,0
2022-11-09T18:14:35.413Z,0
2022-11-09T18:19:35.406Z,0
2022-11-09T18:24:35.390Z,0
2022-11-09T18:29:35.397Z,0
2022-11-09T18:34:35.389Z,0
2022-11-09T18:39:35.436Z,0
2022-11-09T18:44:35.380Z,0
2022-11-09T18:49:35.414Z,0
2022-11-09T18:54:35.351Z,0
2022-11-09T18:59:35.439Z,0
2022-11-09T19:04:35.371Z,0
2022-11-09T19:09:35.522Z,0
2022-11-09T19:14:35.392Z,0
2022-11-09T19:19:35.399Z,0
2022-11-09T19:24:35.348Z,0
2022-11-09T19:29:35.369Z,0
2022-11-09T19:34:35.374Z,0
2022-11-09T19:39:38.125Z,0
2022-11-09T19:44:35.389Z,0
2022-11-09T19:49:35.398Z,0
2022-11-09T19:54:35.363Z,0
2022-11-09T19:59:35.403Z,0
2022-11-09T20:04:35.400Z,0
2022-11-09T20:09:35.360Z,0
2022-11-09T20:14:35.377Z,0
2022-11-09T20:19:35.393Z,0
2022-11-09T20:24:35.404Z,0
2022-11-09T20:29:35.364Z,0
2022-11-09T20:34:35.356Z,0
2022-11-09T20:39:35.383Z,0
2022-11-09T20:44:35.589Z,0
2022-11-09T20:49:35.631Z,0
2022-11-09T20:54:35.587Z,0
2022-11-09T20:59:35.660Z,0
2022-11-09T21:04:35.624Z,0
2022-11-09T21:09:35.541Z,0
2022-11-09T21:14:35.599Z,0
2022-11-09T21:19:35.621Z,0
2022-11-09T21:24:35.590Z,0
2022-11-09T21:29:35.580Z,0
2022-11-09T21:34:37.231Z,0
2022-11-09T21:39:35.605Z,0
2022-11-09T21:44:35.592Z,0
2022-11-09T21:49:35.578Z,0
2022-11-09T21:54:35.620Z,0
2022-11-09T21:59:35.622Z,0
2022-11-09T22:04:35.627Z,0
2022-11-09T22:09:50.873Z,0
2022-11-09T22:14:35.616Z,0
2022-11-09T22:19:35.590Z,0
2022-11-09T22:24:35.595Z,0
2022-11-09T22:29:35.615Z,0
2022-11-09T22:34:35.611Z,0
2022-11-09T22:39:35.594Z,0
2022-11-09T22:44:35.592Z,0
2022-11-09T22:49:35.570Z,0
2022-11-09T22:54:35.591Z,0
2022-11-09T22:59:35.765Z,0
2022-11-09T23:04:35.579Z,0
2022-11-09T23:09:35.578Z,0
2022-11-09T23:14:35.553Z,0
2022-11-09T23:19:35.627Z,0
2022-11-09T23:24:35.546Z,0
2022-11-09T23:29:35.573Z,0
2022-11-09T23:34:35.558Z,0
2022-11-09T23:39:35.583Z,0
2022-11-09T23:44:35.581Z,0
2022-11-09T23:49:35.578Z,0
2022-11-09T23:54:35.582Z,0
2022-11-09T23:59:35.586Z,0
